sensor_id;sensor_type;location;lat;lon;timestamp;pressure;altitude;pressure_sealevel;temperature;humidity
51239;BME280;38154;47.548;18.828;2023-02-20T00:01:16;99341.78;;;2.38;100.00
51239;BME280;38154;47.548;18.828;2023-02-20T00:03:42;99340.13;;;2.38;100.00
51239;BME280;38154;47.548;18.828;2023-02-20T00:06:07;99351.28;;;2.39;100.00
51239;BME280;38154;47.548;18.828;2023-02-20T00:08:33;99354.47;;;2.33;100.00
51239;BME280;38154;47.548;18.828;2023-02-20T00:10:59;99360.63;;;2.37;100.00
51239;BME280;38154;47.548;18.828;2023-02-20T00:13:25;99355.41;;;2.35;100.00
51239;BME280;38154;47.548;18.828;2023-02-20T00:15:51;99357.91;;;2.34;100.00
51239;BME280;38154;47.548;18.828;2023-02-20T00:18:17;99370.66;;;2.31;100.00
51239;BME280;38154;47.548;18.828;2023-02-20T00:20:43;99364.34;;;2.24;100.00
51239;BME280;38154;47.548;18.828;2023-02-20T00:23:09;99377.06;;;2.21;100.00
51239;BME280;38154;47.548;18.828;2023-02-20T00:25:35;99371.75;;;2.16;100.00
51239;BME280;38154;47.548;18.828;2023-02-20T00:28:01;99375.91;;;2.14;100.00
51239;BME280;38154;47.548;18.828;2023-02-20T00:30:27;99382.56;;;2.09;100.00
51239;BME280;38154;47.548;18.828;2023-02-20T00:32:54;99383.37;;;2.08;100.00
51239;BME280;38154;47.548;18.828;2023-02-20T00:35:21;99391.19;;;2.10;100.00
51239;BME280;38154;47.548;18.828;2023-02-20T00:37:48;99408.22;;;2.08;100.00
51239;BME280;38154;47.548;18.828;2023-02-20T00:40:15;99409.75;;;2.04;100.00
51239;BME280;38154;47.548;18.828;2023-02-20T00:42:41;99411.63;;;2.07;100.00
51239;BME280;38154;47.548;18.828;2023-02-20T00:45:08;99415.75;;;2.03;100.00
51239;BME280;38154;47.548;18.828;2023-02-20T00:47:34;99426.03;;;2.03;100.00
51239;BME280;38154;47.548;18.828;2023-02-20T00:50:00;99438.00;;;2.02;100.00
51239;BME280;38154;47.548;18.828;2023-02-20T00:52:26;99450.59;;;1.96;100.00
51239;BME280;38154;47.548;18.828;2023-02-20T00:54:52;99446.97;;;1.93;100.00
51239;BME280;38154;47.548;18.828;2023-02-20T00:57:19;99464.94;;;1.91;100.00
51239;BME280;38154;47.548;18.828;2023-02-20T00:59:45;99467.50;;;1.91;100.00
51239;BME280;38154;47.548;18.828;2023-02-20T01:02:11;99473.81;;;1.80;100.00
51239;BME280;38154;47.548;18.828;2023-02-20T01:04:36;99484.09;;;1.62;100.00
51239;BME280;38154;47.548;18.828;2023-02-20T01:07:02;99485.06;;;1.46;100.00
51239;BME280;38154;47.548;18.828;2023-02-20T01:09:28;99480.63;;;1.43;100.00
51239;BME280;38154;47.548;18.828;2023-02-20T01:11:54;99477.56;;;1.33;100.00
51239;BME280;38154;47.548;18.828;2023-02-20T01:14:20;99472.53;;;1.36;100.00
51239;BME280;38154;47.548;18.828;2023-02-20T01:16:50;99481.63;;;1.29;100.00
51239;BME280;38154;47.548;18.828;2023-02-20T01:19:18;99491.72;;;1.08;100.00
51239;BME280;38154;47.548;18.828;2023-02-20T01:21:44;99489.91;;;0.89;100.00
51239;BME280;38154;47.548;18.828;2023-02-20T01:24:10;99496.59;;;0.69;100.00
51239;BME280;38154;47.548;18.828;2023-02-20T01:26:36;99497.37;;;0.68;100.00
51239;BME280;38154;47.548;18.828;2023-02-20T01:29:02;99496.44;;;0.66;100.00
51239;BME280;38154;47.548;18.828;2023-02-20T01:31:28;99503.72;;;0.58;100.00
51239;BME280;38154;47.548;18.828;2023-02-20T01:33:54;99498.41;;;0.55;100.00
51239;BME280;38154;47.548;18.828;2023-02-20T01:36:20;99499.84;;;0.50;100.00
51239;BME280;38154;47.548;18.828;2023-02-20T01:38:46;99510.63;;;0.59;100.00
51239;BME280;38154;47.548;18.828;2023-02-20T01:41:15;99520.72;;;0.56;100.00
51239;BME280;38154;47.548;18.828;2023-02-20T01:43:41;99527.78;;;0.44;100.00
51239;BME280;38154;47.548;18.828;2023-02-20T01:49:04;99518.66;;;0.17;100.00
51239;BME280;38154;47.548;18.828;2023-02-20T01:51:33;99513.53;;;0.17;100.00
51239;BME280;38154;47.548;18.828;2023-02-20T01:54:01;99515.09;;;-0.01;100.00
51239;BME280;38154;47.548;18.828;2023-02-20T01:56:27;99510.69;;;-0.19;100.00
51239;BME280;38154;47.548;18.828;2023-02-20T01:58:53;99508.41;;;-0.29;100.00
51239;BME280;38154;47.548;18.828;2023-02-20T02:01:19;99504.34;;;-0.25;100.00
51239;BME280;38154;47.548;18.828;2023-02-20T02:03:48;99516.09;;;-0.29;100.00
51239;BME280;38154;47.548;18.828;2023-02-20T02:06:19;99496.41;;;-0.30;100.00
51239;BME280;38154;47.548;18.828;2023-02-20T02:08:45;99503.75;;;-0.36;100.00
51239;BME280;38154;47.548;18.828;2023-02-20T02:11:14;99508.19;;;-0.48;100.00
51239;BME280;38154;47.548;18.828;2023-02-20T02:13:42;99517.22;;;-0.55;100.00
51239;BME280;38154;47.548;18.828;2023-02-20T02:33:06;99541.84;;;-0.72;100.00
51239;BME280;38154;47.548;18.828;2023-02-20T02:38:46;99548.38;;;-0.77;100.00
51239;BME280;38154;47.548;18.828;2023-02-20T02:49:13;99556.47;;;-0.84;100.00
51239;BME280;38154;47.548;18.828;2023-02-20T02:51:43;99551.59;;;-0.95;100.00
51239;BME280;38154;47.548;18.828;2023-02-20T02:54:14;99554.25;;;-0.93;100.00
51239;BME280;38154;47.548;18.828;2023-02-20T02:56:43;99558.41;;;-0.95;100.00
51239;BME280;38154;47.548;18.828;2023-02-20T02:59:24;99557.78;;;-0.91;100.00
51239;BME280;38154;47.548;18.828;2023-02-20T03:01:58;99555.66;;;-0.98;100.00
51239;BME280;38154;47.548;18.828;2023-02-20T03:04:27;99561.38;;;-1.02;100.00
51239;BME280;38154;47.548;18.828;2023-02-20T03:06:58;99569.56;;;-1.08;100.00
51239;BME280;38154;47.548;18.828;2023-02-20T03:09:32;99568.53;;;-1.12;100.00
51239;BME280;38154;47.548;18.828;2023-02-20T03:12:01;99571.84;;;-1.13;100.00
51239;BME280;38154;47.548;18.828;2023-02-20T03:14:35;99568.72;;;-1.08;100.00
51239;BME280;38154;47.548;18.828;2023-02-20T03:17:31;99570.62;;;-1.04;100.00
51239;BME280;38154;47.548;18.828;2023-02-20T03:20:00;99575.56;;;-1.07;100.00
51239;BME280;38154;47.548;18.828;2023-02-20T03:22:34;99578.31;;;-1.04;100.00
51239;BME280;38154;47.548;18.828;2023-02-20T03:25:06;99570.34;;;-1.09;100.00
51239;BME280;38154;47.548;18.828;2023-02-20T03:27:56;99567.66;;;-1.12;100.00
51239;BME280;38154;47.548;18.828;2023-02-20T03:30:48;99577.22;;;-0.80;100.00
51239;BME280;38154;47.548;18.828;2023-02-20T03:33:37;99568.06;;;-0.76;100.00
51239;BME280;38154;47.548;18.828;2023-02-20T03:36:33;99568.59;;;-0.82;100.00
51239;BME280;38154;47.548;18.828;2023-02-20T03:39:25;99567.16;;;-0.91;100.00
51239;BME280;38154;47.548;18.828;2023-02-20T03:42:14;99572.97;;;-0.94;100.00
51239;BME280;38154;47.548;18.828;2023-02-20T03:45:02;99567.94;;;-0.93;100.00
51239;BME280;38154;47.548;18.828;2023-02-20T03:47:30;99572.22;;;-1.06;100.00
51239;BME280;38154;47.548;18.828;2023-02-20T03:49:58;99572.63;;;-1.00;100.00
51239;BME280;38154;47.548;18.828;2023-02-20T03:52:26;99575.84;;;-1.03;100.00
51239;BME280;38154;47.548;18.828;2023-02-20T03:54:52;99577.97;;;-1.10;100.00
51239;BME280;38154;47.548;18.828;2023-02-20T03:57:33;99582.31;;;-0.95;100.00
51239;BME280;38154;47.548;18.828;2023-02-20T04:00:13;99590.22;;;-0.77;100.00
51239;BME280;38154;47.548;18.828;2023-02-20T04:02:44;99592.97;;;-0.73;100.00
51239;BME280;38154;47.548;18.828;2023-02-20T04:05:20;99593.12;;;-0.85;100.00
51239;BME280;38154;47.548;18.828;2023-02-20T04:07:51;99598.16;;;-0.87;100.00
51239;BME280;38154;47.548;18.828;2023-02-20T04:10:23;99594.88;;;-0.84;100.00
51239;BME280;38154;47.548;18.828;2023-02-20T04:12:51;99589.59;;;-0.72;100.00
51239;BME280;38154;47.548;18.828;2023-02-20T04:15:19;99584.41;;;-0.59;100.00
51239;BME280;38154;47.548;18.828;2023-02-20T04:17:49;99593.31;;;-0.67;100.00
51239;BME280;38154;47.548;18.828;2023-02-20T04:20:16;99594.38;;;-0.49;100.00
51239;BME280;38154;47.548;18.828;2023-02-20T04:22:46;99600.50;;;-0.47;100.00
51239;BME280;38154;47.548;18.828;2023-02-20T04:28:17;99599.44;;;-0.35;100.00
51239;BME280;38154;47.548;18.828;2023-02-20T04:30:43;99602.25;;;-0.46;100.00
51239;BME280;38154;47.548;18.828;2023-02-20T04:33:10;99594.75;;;-0.43;100.00
51239;BME280;38154;47.548;18.828;2023-02-20T04:35:38;99601.75;;;-0.40;100.00
51239;BME280;38154;47.548;18.828;2023-02-20T04:38:05;99603.69;;;-0.36;100.00
51239;BME280;38154;47.548;18.828;2023-02-20T04:40:31;99597.41;;;-0.41;100.00
51239;BME280;38154;47.548;18.828;2023-02-20T04:42:57;99588.47;;;-0.48;100.00
51239;BME280;38154;47.548;18.828;2023-02-20T04:45:23;99581.66;;;-0.47;100.00
51239;BME280;38154;47.548;18.828;2023-02-20T04:47:50;99582.13;;;-0.40;100.00
51239;BME280;38154;47.548;18.828;2023-02-20T04:50:22;99584.41;;;-0.29;100.00
51239;BME280;38154;47.548;18.828;2023-02-20T04:52:49;99584.78;;;-0.23;100.00
51239;BME280;38154;47.548;18.828;2023-02-20T04:55:15;99562.69;;;-0.21;100.00
51239;BME280;38154;47.548;18.828;2023-02-20T04:57:41;99561.91;;;-0.20;100.00
51239;BME280;38154;47.548;18.828;2023-02-20T05:00:08;99567.81;;;-0.21;100.00
51239;BME280;38154;47.548;18.828;2023-02-20T05:02:38;99567.25;;;-0.15;100.00
51239;BME280;38154;47.548;18.828;2023-02-20T05:05:06;99555.47;;;0.03;100.00
51239;BME280;38154;47.548;18.828;2023-02-20T05:07:33;99559.81;;;0.04;100.00
51239;BME280;38154;47.548;18.828;2023-02-20T05:09:59;99571.12;;;0.08;100.00
51239;BME280;38154;47.548;18.828;2023-02-20T05:12:25;99582.34;;;0.10;100.00
51239;BME280;38154;47.548;18.828;2023-02-20T05:14:51;99571.88;;;0.22;100.00
51239;BME280;38154;47.548;18.828;2023-02-20T05:17:17;99581.44;;;0.24;100.00
51239;BME280;38154;47.548;18.828;2023-02-20T05:19:43;99583.16;;;0.09;100.00
51239;BME280;38154;47.548;18.828;2023-02-20T05:22:10;99588.87;;;0.05;100.00
51239;BME280;38154;47.548;18.828;2023-02-20T05:24:47;99597.91;;;0.13;100.00
51239;BME280;38154;47.548;18.828;2023-02-20T05:27:14;99594.91;;;0.05;100.00
51239;BME280;38154;47.548;18.828;2023-02-20T05:29:52;99595.78;;;0.06;100.00
51239;BME280;38154;47.548;18.828;2023-02-20T05:32:19;99602.88;;;-0.05;100.00
51239;BME280;38154;47.548;18.828;2023-02-20T05:34:45;99594.94;;;-0.10;100.00
51239;BME280;38154;47.548;18.828;2023-02-20T05:37:14;99604.91;;;-0.14;100.00
51239;BME280;38154;47.548;18.828;2023-02-20T05:39:40;99599.50;;;-0.04;100.00
51239;BME280;38154;47.548;18.828;2023-02-20T05:42:07;99607.38;;;-0.01;100.00
51239;BME280;38154;47.548;18.828;2023-02-20T05:44:33;99610.44;;;0.08;100.00
51239;BME280;38154;47.548;18.828;2023-02-20T05:47:00;99610.53;;;0.10;100.00
51239;BME280;38154;47.548;18.828;2023-02-20T05:49:26;99602.41;;;0.17;100.00
51239;BME280;38154;47.548;18.828;2023-02-20T05:51:55;99601.22;;;0.27;100.00
51239;BME280;38154;47.548;18.828;2023-02-20T05:54:21;99598.13;;;0.32;100.00
51239;BME280;38154;47.548;18.828;2023-02-20T05:56:48;99595.69;;;0.50;100.00
51239;BME280;38154;47.548;18.828;2023-02-20T05:59:17;99603.63;;;0.55;100.00
51239;BME280;38154;47.548;18.828;2023-02-20T06:01:43;99606.91;;;0.52;100.00
51239;BME280;38154;47.548;18.828;2023-02-20T06:04:09;99614.72;;;0.54;100.00
51239;BME280;38154;47.548;18.828;2023-02-20T06:06:39;99611.84;;;0.64;100.00
51239;BME280;38154;47.548;18.828;2023-02-20T06:09:08;99623.62;;;0.77;100.00
51239;BME280;38154;47.548;18.828;2023-02-20T06:11:40;99628.22;;;0.83;100.00
51239;BME280;38154;47.548;18.828;2023-02-20T06:14:06;99625.66;;;0.83;100.00
51239;BME280;38154;47.548;18.828;2023-02-20T06:16:33;99637.22;;;0.91;100.00
51239;BME280;38154;47.548;18.828;2023-02-20T06:18:59;99630.41;;;0.91;100.00
51239;BME280;38154;47.548;18.828;2023-02-20T06:21:26;99637.53;;;0.97;100.00
51239;BME280;38154;47.548;18.828;2023-02-20T06:23:52;99640.53;;;1.05;100.00
51239;BME280;38154;47.548;18.828;2023-02-20T06:26:19;99642.50;;;1.10;100.00
51239;BME280;38154;47.548;18.828;2023-02-20T06:28:45;99636.09;;;1.19;100.00
51239;BME280;38154;47.548;18.828;2023-02-20T06:31:20;99642.34;;;1.24;100.00
51239;BME280;38154;47.548;18.828;2023-02-20T06:33:46;99646.00;;;1.27;100.00
51239;BME280;38154;47.548;18.828;2023-02-20T06:36:24;99641.81;;;1.29;100.00
51239;BME280;38154;47.548;18.828;2023-02-20T06:38:50;99649.28;;;1.41;100.00
51239;BME280;38154;47.548;18.828;2023-02-20T06:41:16;99660.09;;;1.52;100.00
51239;BME280;38154;47.548;18.828;2023-02-20T06:43:42;99650.06;;;1.57;100.00
51239;BME280;38154;47.548;18.828;2023-02-20T06:46:07;99650.94;;;1.57;100.00
51239;BME280;38154;47.548;18.828;2023-02-20T06:48:33;99643.53;;;1.63;100.00
51239;BME280;38154;47.548;18.828;2023-02-20T06:50:59;99647.97;;;1.66;100.00
51239;BME280;38154;47.548;18.828;2023-02-20T06:53:25;99648.19;;;1.71;100.00
51239;BME280;38154;47.548;18.828;2023-02-20T06:55:51;99651.00;;;1.75;100.00
51239;BME280;38154;47.548;18.828;2023-02-20T06:58:17;99654.75;;;1.82;100.00
51239;BME280;38154;47.548;18.828;2023-02-20T07:00:43;99660.38;;;1.91;100.00
51239;BME280;38154;47.548;18.828;2023-02-20T07:03:09;99661.94;;;2.06;100.00
51239;BME280;38154;47.548;18.828;2023-02-20T07:05:35;99664.38;;;2.20;100.00
51239;BME280;38154;47.548;18.828;2023-02-20T07:08:01;99663.94;;;2.47;100.00
51239;BME280;38154;47.548;18.828;2023-02-20T07:10:27;99652.44;;;2.76;100.00
51239;BME280;38154;47.548;18.828;2023-02-20T07:12:53;99654.75;;;2.90;100.00
51239;BME280;38154;47.548;18.828;2023-02-20T07:15:18;99653.41;;;2.98;100.00
51239;BME280;38154;47.548;18.828;2023-02-20T07:17:44;99657.00;;;3.02;100.00
51239;BME280;38154;47.548;18.828;2023-02-20T07:20:10;99660.97;;;3.13;100.00
51239;BME280;38154;47.548;18.828;2023-02-20T07:22:36;99645.38;;;3.29;100.00
51239;BME280;38154;47.548;18.828;2023-02-20T07:25:02;99649.81;;;3.32;100.00
51239;BME280;38154;47.548;18.828;2023-02-20T07:27:29;99642.47;;;3.61;100.00
51239;BME280;38154;47.548;18.828;2023-02-20T07:29:55;99647.19;;;3.92;100.00
51239;BME280;38154;47.548;18.828;2023-02-20T07:32:20;99641.78;;;4.07;100.00
51239;BME280;38154;47.548;18.828;2023-02-20T07:34:48;99639.22;;;4.07;100.00
51239;BME280;38154;47.548;18.828;2023-02-20T07:37:14;99638.59;;;4.13;100.00
51239;BME280;38154;47.548;18.828;2023-02-20T07:39:40;99643.44;;;4.05;100.00
51239;BME280;38154;47.548;18.828;2023-02-20T07:42:06;99652.94;;;4.06;100.00
51239;BME280;38154;47.548;18.828;2023-02-20T07:44:32;99648.66;;;4.06;100.00
51239;BME280;38154;47.548;18.828;2023-02-20T07:46:58;99649.75;;;3.90;100.00
51239;BME280;38154;47.548;18.828;2023-02-20T07:49:24;99659.63;;;4.01;100.00
51239;BME280;38154;47.548;18.828;2023-02-20T07:51:50;99643.31;;;4.02;100.00
51239;BME280;38154;47.548;18.828;2023-02-20T07:54:16;99638.81;;;4.19;100.00
51239;BME280;38154;47.548;18.828;2023-02-20T07:56:42;99632.91;;;4.00;100.00
51239;BME280;38154;47.548;18.828;2023-02-20T07:59:07;99630.41;;;4.02;100.00
51239;BME280;38154;47.548;18.828;2023-02-20T08:01:35;99622.78;;;4.26;100.00
51239;BME280;38154;47.548;18.828;2023-02-20T08:04:01;99629.41;;;4.19;100.00
51239;BME280;38154;47.548;18.828;2023-02-20T08:06:27;99636.31;;;4.20;100.00
51239;BME280;38154;47.548;18.828;2023-02-20T08:08:53;99644.00;;;3.98;100.00
51239;BME280;38154;47.548;18.828;2023-02-20T08:11:21;99652.78;;;3.82;100.00
51239;BME280;38154;47.548;18.828;2023-02-20T08:13:48;99643.91;;;3.75;100.00
51239;BME280;38154;47.548;18.828;2023-02-20T08:16:14;99639.09;;;3.63;100.00
51239;BME280;38154;47.548;18.828;2023-02-20T08:18:39;99655.16;;;3.56;100.00
51239;BME280;38154;47.548;18.828;2023-02-20T08:21:05;99644.47;;;3.48;100.00
51239;BME280;38154;47.548;18.828;2023-02-20T08:23:31;99641.09;;;3.49;100.00
51239;BME280;38154;47.548;18.828;2023-02-20T08:25:57;99640.47;;;3.55;100.00
51239;BME280;38154;47.548;18.828;2023-02-20T08:28:24;99637.00;;;3.74;100.00
51239;BME280;38154;47.548;18.828;2023-02-20T08:30:50;99631.94;;;4.18;100.00
51239;BME280;38154;47.548;18.828;2023-02-20T08:33:16;99624.47;;;4.46;100.00
51239;BME280;38154;47.548;18.828;2023-02-20T08:35:43;99619.25;;;4.68;100.00
51239;BME280;38154;47.548;18.828;2023-02-20T08:38:29;99619.47;;;4.74;100.00
51239;BME280;38154;47.548;18.828;2023-02-20T08:40:56;99621.06;;;4.70;100.00
51239;BME280;38154;47.548;18.828;2023-02-20T08:43:22;99624.56;;;4.72;100.00
51239;BME280;38154;47.548;18.828;2023-02-20T08:45:49;99620.13;;;4.68;100.00
51239;BME280;38154;47.548;18.828;2023-02-20T08:48:14;99611.00;;;4.55;100.00
51239;BME280;38154;47.548;18.828;2023-02-20T08:50:40;99613.66;;;4.34;100.00
51239;BME280;38154;47.548;18.828;2023-02-20T08:53:07;99608.56;;;4.36;100.00
51239;BME280;38154;47.548;18.828;2023-02-20T08:55:33;99613.72;;;4.36;100.00
51239;BME280;38154;47.548;18.828;2023-02-20T08:57:59;99611.00;;;4.33;100.00
51239;BME280;38154;47.548;18.828;2023-02-20T09:00:25;99617.44;;;4.21;100.00
51239;BME280;38154;47.548;18.828;2023-02-20T09:02:50;99612.94;;;4.17;100.00
51239;BME280;38154;47.548;18.828;2023-02-20T09:05:17;99593.75;;;4.32;100.00
51239;BME280;38154;47.548;18.828;2023-02-20T09:07:43;99598.97;;;4.56;100.00
51239;BME280;38154;47.548;18.828;2023-02-20T09:10:10;99607.56;;;4.55;100.00
51239;BME280;38154;47.548;18.828;2023-02-20T09:12:35;99606.72;;;4.56;100.00
51239;BME280;38154;47.548;18.828;2023-02-20T09:15:02;99597.41;;;4.59;100.00
51239;BME280;38154;47.548;18.828;2023-02-20T09:17:28;99587.47;;;4.70;100.00
51239;BME280;38154;47.548;18.828;2023-02-20T09:19:54;99597.84;;;4.94;100.00
51239;BME280;38154;47.548;18.828;2023-02-20T09:22:24;99597.59;;;5.11;100.00
51239;BME280;38154;47.548;18.828;2023-02-20T09:24:51;99604.97;;;5.24;100.00
51239;BME280;38154;47.548;18.828;2023-02-20T09:27:18;99602.31;;;5.47;100.00
51239;BME280;38154;47.548;18.828;2023-02-20T09:29:45;99599.50;;;6.72;100.00
51239;BME280;38154;47.548;18.828;2023-02-20T09:32:11;99588.59;;;8.49;100.00
51239;BME280;38154;47.548;18.828;2023-02-20T09:34:37;99589.94;;;8.70;93.87
51239;BME280;38154;47.548;18.828;2023-02-20T09:37:03;99587.84;;;8.18;95.40
51239;BME280;38154;47.548;18.828;2023-02-20T09:39:30;99596.50;;;7.83;100.00
51239;BME280;38154;47.548;18.828;2023-02-20T09:44:52;99600.62;;;6.82;100.00
51239;BME280;38154;47.548;18.828;2023-02-20T09:50:12;99588.53;;;6.52;100.00
51239;BME280;38154;47.548;18.828;2023-02-20T09:52:40;99582.81;;;6.62;100.00
51239;BME280;38154;47.548;18.828;2023-02-20T09:55:19;99577.41;;;6.56;100.00
51239;BME280;38154;47.548;18.828;2023-02-20T09:57:48;99576.97;;;6.41;100.00
51239;BME280;38154;47.548;18.828;2023-02-20T10:00:27;99561.63;;;6.48;100.00
51239;BME280;38154;47.548;18.828;2023-02-20T10:03:04;99563.22;;;6.72;100.00
51239;BME280;38154;47.548;18.828;2023-02-20T10:05:33;99562.47;;;6.47;100.00
51239;BME280;38154;47.548;18.828;2023-02-20T10:08:01;99548.00;;;6.25;100.00
51239;BME280;38154;47.548;18.828;2023-02-20T10:10:30;99543.31;;;6.13;100.00
51239;BME280;38154;47.548;18.828;2023-02-20T10:22:13;99538.84;;;6.65;100.00
51239;BME280;38154;47.548;18.828;2023-02-20T10:29:44;99539.84;;;7.01;100.00
51239;BME280;38154;47.548;18.828;2023-02-20T10:32:39;99528.00;;;7.11;100.00
51239;BME280;38154;47.548;18.828;2023-02-20T10:35:10;99519.69;;;7.22;100.00
51239;BME280;38154;47.548;18.828;2023-02-20T10:37:41;99520.50;;;7.21;100.00
51239;BME280;38154;47.548;18.828;2023-02-20T10:42:42;99509.72;;;7.73;100.00
51239;BME280;38154;47.548;18.828;2023-02-20T10:45:31;99502.50;;;7.61;100.00
51239;BME280;38154;47.548;18.828;2023-02-20T10:48:09;99502.59;;;7.66;100.00
51239;BME280;38154;47.548;18.828;2023-02-20T10:50:43;99497.72;;;7.78;100.00
51239;BME280;38154;47.548;18.828;2023-02-20T10:55:53;99482.22;;;9.03;100.00
51239;BME280;38154;47.548;18.828;2023-02-20T10:58:22;99489.84;;;9.41;98.93
51239;BME280;38154;47.548;18.828;2023-02-20T11:00:57;99476.81;;;9.93;97.01
51239;BME280;38154;47.548;18.828;2023-02-20T11:03:47;99483.69;;;10.46;97.04
51239;BME280;38154;47.548;18.828;2023-02-20T11:06:19;99479.34;;;11.23;91.46
51239;BME280;38154;47.548;18.828;2023-02-20T11:08:46;99467.16;;;12.32;83.53
51239;BME280;38154;47.548;18.828;2023-02-20T11:11:27;99463.94;;;13.03;79.46
51239;BME280;38154;47.548;18.828;2023-02-20T11:13:57;99452.66;;;13.85;76.53
51239;BME280;38154;47.548;18.828;2023-02-20T11:16:28;99447.97;;;14.97;72.82
51239;BME280;38154;47.548;18.828;2023-02-20T11:19:24;99427.34;;;15.62;66.97
51239;BME280;38154;47.548;18.828;2023-02-20T11:21:49;99423.81;;;15.65;66.34
51239;BME280;38154;47.548;18.828;2023-02-20T11:24:30;99418.62;;;17.11;61.56
51239;BME280;38154;47.548;18.828;2023-02-20T11:27:01;99426.78;;;16.94;58.85
51239;BME280;38154;47.548;18.828;2023-02-20T11:32:40;99426.84;;;17.48;56.93
51239;BME280;38154;47.548;18.828;2023-02-20T11:37:43;99419.25;;;16.66;58.87
51239;BME280;38154;47.548;18.828;2023-02-20T11:40:15;99405.69;;;16.94;58.21
51239;BME280;38154;47.548;18.828;2023-02-20T11:42:43;99396.50;;;17.21;57.39
51239;BME280;38154;47.548;18.828;2023-02-20T11:45:26;99391.41;;;17.12;57.91
51239;BME280;38154;47.548;18.828;2023-02-20T11:48:08;99388.72;;;17.66;57.37
51239;BME280;38154;47.548;18.828;2023-02-20T11:50:50;99384.84;;;17.36;57.15
51239;BME280;38154;47.548;18.828;2023-02-20T11:53:25;99375.56;;;17.13;58.89
51239;BME280;38154;47.548;18.828;2023-02-20T11:56:11;99366.34;;;17.39;56.19
51239;BME280;38154;47.548;18.828;2023-02-20T11:58:39;99355.94;;;16.70;56.15
51239;BME280;38154;47.548;18.828;2023-02-20T12:01:05;99351.38;;;16.18;58.23
51239;BME280;38154;47.548;18.828;2023-02-20T12:03:32;99344.31;;;16.23;58.50
51239;BME280;38154;47.548;18.828;2023-02-20T12:06:01;99342.84;;;16.01;58.82
51239;BME280;38154;47.548;18.828;2023-02-20T12:08:55;99329.75;;;15.01;60.84
51239;BME280;38154;47.548;18.828;2023-02-20T12:11:25;99339.81;;;14.21;66.64
51239;BME280;38154;47.548;18.828;2023-02-20T12:13:53;99326.88;;;13.79;65.56
51239;BME280;38154;47.548;18.828;2023-02-20T12:19:23;99314.69;;;12.93;72.05
51239;BME280;38154;47.548;18.828;2023-02-20T12:24:45;99311.19;;;12.64;75.94
51239;BME280;38154;47.548;18.828;2023-02-20T12:30:19;99316.34;;;12.25;78.24
51239;BME280;38154;47.548;18.828;2023-02-20T12:32:59;99301.44;;;12.07;81.84
51239;BME280;38154;47.548;18.828;2023-02-20T12:35:33;99300.53;;;11.96;81.41
51239;BME280;38154;47.548;18.828;2023-02-20T12:43:45;99305.56;;;11.62;83.33
51239;BME280;38154;47.548;18.828;2023-02-20T12:46:23;99301.34;;;11.87;83.59
51239;BME280;38154;47.548;18.828;2023-02-20T12:49:21;99302.25;;;11.92;84.61
51239;BME280;38154;47.548;18.828;2023-02-20T12:54:25;99286.63;;;11.98;85.23
51239;BME280;38154;47.548;18.828;2023-02-20T12:57:05;99291.84;;;12.06;84.42
51239;BME280;38154;47.548;18.828;2023-02-20T12:59:58;99295.16;;;11.74;83.28
51239;BME280;38154;47.548;18.828;2023-02-20T13:02:30;99282.97;;;11.72;84.15
51239;BME280;38154;47.548;18.828;2023-02-20T13:04:59;99277.69;;;11.62;84.76
51239;BME280;38154;47.548;18.828;2023-02-20T13:07:46;99282.00;;;11.54;84.45
51239;BME280;38154;47.548;18.828;2023-02-20T13:10:23;99289.22;;;11.98;85.00
51239;BME280;38154;47.548;18.828;2023-02-20T13:12:51;99284.87;;;12.08;83.00
51239;BME280;38154;47.548;18.828;2023-02-20T13:21:16;99257.03;;;12.09;80.56
51239;BME280;38154;47.548;18.828;2023-02-20T13:23:42;99267.31;;;11.79;80.81
51239;BME280;38154;47.548;18.828;2023-02-20T13:29:17;99250.00;;;11.92;82.43
51239;BME280;38154;47.548;18.828;2023-02-20T13:31:50;99249.91;;;11.78;79.93
51239;BME280;38154;47.548;18.828;2023-02-20T13:36:46;99248.16;;;11.76;81.37
51239;BME280;38154;47.548;18.828;2023-02-20T13:47:00;99251.75;;;11.92;79.87
51239;BME280;38154;47.548;18.828;2023-02-20T13:52:38;99239.63;;;12.26;77.36
51239;BME280;38154;47.548;18.828;2023-02-20T13:55:17;99222.13;;;11.97;77.44
51239;BME280;38154;47.548;18.828;2023-02-20T13:57:51;99221.16;;;11.75;77.21
51239;BME280;38154;47.548;18.828;2023-02-20T14:00:44;99210.63;;;11.54;78.42
51239;BME280;38154;47.548;18.828;2023-02-20T14:03:19;99212.19;;;11.14;79.91
51239;BME280;38154;47.548;18.828;2023-02-20T14:05:45;99212.97;;;11.07;81.20
51239;BME280;38154;47.548;18.828;2023-02-20T14:08:17;99211.22;;;11.05;81.37
51239;BME280;38154;47.548;18.828;2023-02-20T14:10:43;99214.69;;;11.02;80.40
51239;BME280;38154;47.548;18.828;2023-02-20T14:13:18;99212.06;;;10.96;81.46
51239;BME280;38154;47.548;18.828;2023-02-20T14:15:48;99222.47;;;10.93;83.62
51239;BME280;38154;47.548;18.828;2023-02-20T14:20:45;99225.22;;;11.16;81.65
51239;BME280;38154;47.548;18.828;2023-02-20T14:23:28;99225.31;;;11.31;80.85
51239;BME280;38154;47.548;18.828;2023-02-20T14:25:59;99208.84;;;11.46;82.11
51239;BME280;38154;47.548;18.828;2023-02-20T14:28:31;99214.09;;;11.56;79.08
51239;BME280;38154;47.548;18.828;2023-02-20T14:33:35;99192.44;;;11.75;77.96
51239;BME280;38154;47.548;18.828;2023-02-20T14:39:25;99174.84;;;11.28;78.88
51239;BME280;38154;47.548;18.828;2023-02-20T14:41:57;99178.16;;;11.04;81.46
51239;BME280;38154;47.548;18.828;2023-02-20T14:44:24;99179.78;;;10.83;82.47
51239;BME280;38154;47.548;18.828;2023-02-20T14:46:55;99187.59;;;10.82;85.16
51239;BME280;38154;47.548;18.828;2023-02-20T14:49:26;99186.69;;;10.75;82.82
51239;BME280;38154;47.548;18.828;2023-02-20T14:52:14;99183.16;;;10.68;83.98
51239;BME280;38154;47.548;18.828;2023-02-20T14:54:42;99187.50;;;10.72;83.96